Time;durP1;ratioP1;P1;durP2;ratioP2;P2;SDS_P1;SDS_P2;PMS_P1;PMS_P2;Temp;Humidity;BMP_temperature;BMP_pressure;BME280_temperature;BME280_humidity;BME280_pressure;Samples;Min_cycle;Max_cycle;Signal;HPM_P1;HPM_P2
2023/10/12 00:02:26;;;;;;;6.75;1.42;;;;;;;10.93;60.18;100963.97;4919946;28;20032;-71
2023/10/12 00:04:59;;;;;;;3.20;0.55;;;;;;;10.94;59.92;100957.81;4916776;28;20501;-71
2023/10/12 00:07:45;;;;;;;10.82;0.90;;;;;;;10.88;59.96;100965.91;4918905;28;20031;-72
2023/10/12 00:12:46;;;;;;;7.03;0.98;;;;;;;10.90;60.01;100977.16;4918686;28;20032;-72
2023/10/12 00:18:08;;;;;;;10.65;0.80;;;;;;;10.58;60.08;100983.63;4922301;28;20036;-70
2023/10/12 00:20:38;;;;;;;6.80;1.13;;;;;;;10.62;60.02;100980.00;4922520;28;20527;-68
2023/10/12 00:23:15;;;;;;;7.32;0.52;;;;;;;10.68;59.61;100989.34;4916163;28;20027;-68
2023/10/12 00:25:46;;;;;;;10.60;0.70;;;;;;;10.58;59.46;101000.16;4936201;28;20481;-68
2023/10/12 00:28:23;;;;;;;7.53;1.58;;;;;;;10.56;59.46;101008.97;4933041;28;20050;-69
2023/10/12 00:30:54;;;;;;;7.20;0.45;;;;;;;10.42;59.49;101012.94;4936680;28;20044;-71
2023/10/12 00:33:20;;;;;;;;;;;;;;;10.42;59.18;101009.50;4910284;28;20027;-69
2023/10/12 00:36:01;;;;;;;11.60;0.40;;;;;;;10.27;59.60;100999.59;4927140;28;19930;-69
2023/10/12 00:38:29;;;;;;;9.30;0.50;;;;;;;10.28;59.52;100996.06;4924519;28;20055;-70
2023/10/12 00:41:07;;;;;;;10.02;1.27;;;;;;;10.31;59.52;100998.59;4921381;28;20051;-70
2023/10/12 00:43:39;;;;;;;4.03;0.28;;;;;;;10.37;59.10;101007.06;4921224;28;20115;-70
2023/10/12 00:46:16;;;;;;;;;;;;;;;10.45;59.19;101004.13;4940239;28;20058;-70
2023/10/12 00:48:49;;;;;;;8.18;1.02;;;;;;;10.48;59.02;100998.81;4921148;28;20168;-70
2023/10/12 00:51:18;;;;;;;3.88;0.32;;;;;;;10.36;59.05;101005.31;4916158;28;20446;-70
2023/10/12 00:53:55;;;;;;;12.82;0.60;;;;;;;10.32;59.56;101008.13;4923328;28;20031;-70
2023/10/12 00:56:23;;;;;;;11.68;0.52;;;;;;;10.37;59.42;101019.25;4922771;28;20054;-70
2023/10/12 00:58:50;;;;;;;5.55;0.63;;;;;;;10.34;59.50;101012.38;4927657;28;20545;-70
2023/10/12 01:01:18;;;;;;;4.22;0.43;;;;;;;10.33;59.56;101012.44;4930395;28;21242;-70
2023/10/12 01:03:45;;;;;;;8.07;1.08;;;;;;;10.31;59.65;100998.59;4929014;28;20035;-70
2023/10/12 01:08:42;;;;;;;5.00;0.52;;;;;;;10.27;59.51;100994.38;4952245;28;20105;-70
2023/10/12 01:11:26;;;;;;;13.65;0.60;;;;;;;10.09;60.10;100993.28;4933636;28;20048;-70
2023/10/12 01:16:23;;;;;;;4.23;0.23;;;;;;;10.11;60.19;100994.09;4948925;28;20371;-70
2023/10/12 01:18:56;;;;;;;5.57;0.28;;;;;;;10.11;59.96;101001.94;4926765;28;20035;-70
2023/10/12 01:21:22;;;;;;;3.58;0.60;;;;;;;10.09;59.90;101001.97;4921002;28;20062;-68
2023/10/12 01:23:51;;;;;;;5.78;0.75;;;;;;;9.99;60.36;101011.03;4921204;28;20058;-69
2023/10/12 01:26:20;;;;;;;6.05;1.40;;;;;;;9.99;60.31;101014.50;4917081;28;20032;-66
2023/10/12 01:28:49;;;;;;;13.70;0.77;;;;;;;9.82;61.03;101021.22;4917146;28;20356;-69
2023/10/12 01:31:28;;;;;;;5.40;1.45;;;;;;;9.87;61.00;101014.09;4930568;28;20049;-68
2023/10/12 01:33:57;;;;;;;4.10;0.25;;;;;;;9.88;60.91;101013.16;4919839;28;20506;-69
2023/10/12 01:36:27;;;;;;;7.03;1.00;;;;;;;9.86;61.10;101010.63;4932407;28;20131;-68
2023/10/12 01:39:11;;;;;;;10.85;1.50;;;;;;;9.91;60.67;101013.91;4923631;28;20078;-68
2023/10/12 01:41:40;;;;;;;2.70;0.45;;;;;;;9.83;61.02;101013.31;4935520;28;20130;-69
2023/10/12 01:44:12;;;;;;;7.97;0.55;;;;;;;9.72;61.19;101018.03;4930268;28;20067;-70
2023/10/12 01:46:39;;;;;;;6.70;0.40;;;;;;;9.67;61.25;101015.56;4918666;28;20542;-71
2023/10/12 01:49:06;;;;;;;5.50;0.45;;;;;;;9.76;61.25;101010.03;4914426;28;20056;-70
2023/10/12 01:51:33;;;;;;;6.45;0.73;;;;;;;9.79;61.02;101015.19;4921863;28;20262;-71
2023/10/12 01:54:01;;;;;;;6.60;0.82;;;;;;;9.85;60.84;101015.88;4919469;28;20035;-71
2023/10/12 01:56:29;;;;;;;9.38;0.65;;;;;;;9.86;60.74;101013.25;4920972;28;20032;-70
2023/10/12 01:58:54;;;;;;;10.75;1.00;;;;;;;9.68;61.33;101006.84;4935157;28;20399;-71
2023/10/12 02:01:21;;;;;;;6.82;0.32;;;;;;;9.61;61.55;101010.59;4921025;28;20074;-69
2023/10/12 02:03:54;;;;;;;13.93;1.27;;;;;;;9.70;61.32;101012.00;4926070;28;20023;-68
2023/10/12 02:06:23;;;;;;;2.15;0.43;;;;;;;9.73;61.18;101015.38;4921556;28;21334;-68
2023/10/12 02:08:52;;;;;;;5.75;0.40;;;;;;;9.75;61.17;101010.13;4919505;28;20461;-69
2023/10/12 02:13:50;;;;;;;10.25;0.75;;;;;;;9.81;61.27;101025.56;4934581;28;20059;-69
2023/10/12 02:16:30;;;;;;;2.95;0.40;;;;;;;9.78;61.23;101018.66;4912773;28;20528;-69
2023/10/12 02:18:56;;;;;;;4.65;0.60;;;;;;;9.79;61.45;101020.44;4918152;28;20039;-68
2023/10/12 02:21:25;;;;;;;5.57;0.60;;;;;;;9.82;61.05;101023.84;4928269;28;20573;-69
2023/10/12 02:26:35;;;;;;;5.95;0.73;;;;;;;9.69;61.48;101023.38;4929481;28;20063;-68
2023/10/12 02:31:38;;;;;;;6.40;1.00;;;;;;;9.71;61.20;101032.84;4933466;28;20637;-68
2023/10/12 02:34:14;;;;;;;9.82;0.63;;;;;;;9.71;60.87;101040.69;4929532;28;20047;-70
2023/10/12 02:36:40;;;;;;;8.23;0.60;;;;;;;9.73;61.18;101035.41;4920388;28;20122;-70
2023/10/12 02:39:15;;;;;;;3.13;0.50;;;;;;;9.70;61.14;101035.50;4916650;28;20319;-70
2023/10/12 02:41:48;;;;;;;6.07;0.90;;;;;;;9.56;61.61;101038.56;4921634;28;20412;-69
2023/10/12 02:44:18;;;;;;;5.97;1.38;;;;;;;9.56;61.35;101039.41;4917194;28;20077;-69
2023/10/12 02:47:04;;;;;;;8.68;0.90;;;;;;;9.53;61.35;101049.13;4917113;28;20506;-70
2023/10/12 02:49:35;;;;;;;2.70;0.38;;;;;;;9.45;61.68;101056.34;4917278;28;20039;-70
2023/10/12 02:52:06;;;;;;;7.07;0.40;;;;;;;9.32;61.77;101061.09;4935131;28;20094;-70
2023/10/12 02:54:38;;;;;;;6.00;0.40;;;;;;;9.36;61.75;101063.53;4919681;28;20052;-70
2023/10/12 02:57:04;;;;;;;5.47;0.57;;;;;;;9.38;61.49;101071.34;4917058;28;20606;-70
2023/10/12 02:59:36;;;;;;;7.45;0.50;;;;;;;9.27;61.88;101063.00;4919802;28;20163;-69
2023/10/12 03:02:17;;;;;;;4.22;0.20;;;;;;;9.28;61.76;101080.38;4920160;28;20638;-68
2023/10/12 03:04:45;;;;;;;6.10;0.22;;;;;;;9.40;61.43;101080.81;4911535;28;20058;-68
2023/10/12 03:07:16;;;;;;;6.05;0.65;;;;;;;9.41;61.24;101084.31;4928819;28;20174;-69
2023/10/12 03:09:43;;;;;;;9.00;0.55;;;;;;;9.41;61.33;101076.47;4932686;28;20048;-68
2023/10/12 03:12:10;;;;;;;3.22;0.73;;;;;;;9.42;60.94;101083.38;4915598;28;20035;-69
2023/10/12 03:14:40;;;;;;;6.15;0.60;;;;;;;9.40;61.21;101083.41;4932429;28;20170;-69
2023/10/12 03:17:07;;;;;;;6.22;0.40;;;;;;;9.24;61.77;101084.81;4915392;28;20513;-70
2023/10/12 03:19:36;;;;;;;12.23;0.55;;;;;;;9.19;61.71;101097.16;4933785;28;20618;-72
2023/10/12 03:22:23;;;;;;;11.73;0.70;;;;;;;9.16;61.42;101092.88;4927298;28;20059;-69
2023/10/12 03:24:51;;;;;;;6.22;1.02;;;;;;;9.14;61.44;101093.81;4924080;28;20490;-68
2023/10/12 03:27:17;;;;;;;2.72;0.40;;;;;;;9.04;61.33;101088.03;4913653;28;20669;-70
2023/10/12 03:29:43;;;;;;;4.60;0.60;;;;;;;9.02;61.72;101091.59;4915903;28;20054;-67
2023/10/12 03:32:12;;;;;;;5.40;0.20;;;;;;;9.18;60.98;101088.44;4914234;28;20043;-68
2023/10/12 03:37:14;;;;;;;11.02;0.50;;;;;;;9.27;60.80;101105.56;4913515;28;20524;-70
2023/10/12 03:42:41;;;;;;;3.15;0.30;;;;;;;9.27;60.75;101104.72;4915123;28;20039;-69
2023/10/12 03:45:23;;;;;;;6.85;0.50;;;;;;;9.21;61.03;101099.69;4923624;28;20044;-68
2023/10/12 03:48:15;;;;;;;9.95;1.38;;;;;;;9.04;61.43;101110.66;4917275;28;20040;-66
2023/10/12 03:50:59;;;;;;;3.33;0.33;;;;;;;9.13;60.81;101112.97;4910893;28;20047;-67
2023/10/12 03:53:37;;;;;;;5.43;0.50;;;;;;;8.92;61.66;101111.88;4912464;28;20122;-67
2023/10/12 03:56:07;;;;;;;7.60;0.50;;;;;;;9.00;61.47;101116.84;4933638;28;20055;-70
2023/10/12 03:58:38;;;;;;;3.38;0.50;;;;;;;9.02;61.08;101120.25;4918479;28;20046;-71
2023/10/12 04:01:22;;;;;;;8.70;0.60;;;;;;;8.97;61.04;101117.81;4919486;28;20051;-71
2023/10/12 04:03:58;;;;;;;5.20;0.30;;;;;;;8.89;61.48;101127.59;4918627;28;20114;-71
2023/10/12 04:06:24;;;;;;;6.03;0.40;;;;;;;8.97;61.15;101123.84;4928319;28;20277;-73
2023/10/12 04:08:55;;;;;;;2.45;0.38;;;;;;;8.93;61.14;101124.84;4904807;28;20067;-72
2023/10/12 04:11:47;;;;;;;3.38;0.70;;;;;;;8.96;61.06;101122.16;4912468;28;20131;-72
2023/10/12 04:16:57;;;;;;;8.82;0.60;;;;;;;8.88;61.16;101118.91;4917776;28;20203;-73
2023/10/12 04:19:33;;;;;;;6.00;0.50;;;;;;;8.91;61.19;101123.19;4912406;28;20130;-72
2023/10/12 04:22:41;;;;;;;2.15;0.28;;;;;;;8.88;61.06;101131.94;4917311;28;20063;-71
2023/10/12 04:24:54;;;;;;;7.47;0.70;;;;;;;8.94;61.15;101129.16;4921260;28;20082;-71
2023/10/12 04:29:58;;;;;;;4.25;0.50;;;;;;;8.92;61.23;101143.16;4930481;28;20043;-66
2023/10/12 04:32:51;;;;;;;2.47;0.40;;;;;;;8.94;61.16;101137.00;4928754;28;20031;-70
2023/10/12 04:36:24;;;;;;;12.02;0.73;;;;;;;8.94;61.30;101139.59;4910047;28;20102;-71
2023/10/12 04:43:52;;;;;;;5.40;0.30;;;;;;;8.95;61.02;101154.31;4915546;28;20138;-70
2023/10/12 04:52:02;;;;;;;10.25;0.50;;;;;;;9.07;60.51;101157.47;4905152;29;20051;-71
2023/10/12 04:54:31;;;;;;;5.25;0.20;;;;;;;9.15;60.20;101160.72;4902088;28;20043;-70
2023/10/12 04:57:11;;;;;;;1.27;0.22;;;;;;;9.18;59.97;101158.00;4917033;28;20032;-74
2023/10/12 05:07:53;;;;;;;7.13;0.77;;;;;;;8.81;60.14;101166.03;4915659;28;21396;-73
2023/10/12 05:10:26;;;;;;;5.90;0.47;;;;;;;8.90;59.59;101174.47;4929069;28;20051;-72
2023/10/12 05:12:57;;;;;;;6.35;0.65;;;;;;;8.98;59.65;101175.13;4935196;28;20067;-72
2023/10/12 05:15:27;;;;;;;2.15;0.60;;;;;;;9.09;59.65;101185.22;4915170;28;20268;-71
2023/10/12 05:17:53;;;;;;;6.60;1.20;;;;;;;9.15;59.43;101186.81;4929275;28;20048;-72
2023/10/12 05:20:22;;;;;;;6.18;0.40;;;;;;;9.15;59.40;101186.81;4917261;28;20048;-72
2023/10/12 05:22:48;;;;;;;10.57;0.20;;;;;;;9.18;59.35;101191.91;4936641;28;20688;-73
2023/10/12 05:25:14;;;;;;;5.55;0.45;;;;;;;9.16;59.05;101193.72;4925359;28;20225;-74
2023/10/12 05:27:55;;;;;;;5.47;0.20;;;;;;;9.09;58.94;101200.00;4933043;28;20043;-72
2023/10/12 05:30:26;;;;;;;5.03;0.30;;;;;;;9.05;59.19;101195.78;4914882;28;20067;-71
2023/10/12 05:32:56;;;;;;;1.55;0.52;;;;;;;8.95;58.93;101197.81;4923214;28;20039;-71
2023/10/12 05:35:46;;;;;;;6.72;0.47;;;;;;;8.93;58.80;101203.06;4913941;28;20478;-69
2023/10/12 05:38:07;;;;;;;4.93;0.75;;;;;;;8.85;58.86;101210.25;4916668;28;20271;-72
2023/10/12 05:40:41;;;;;;;5.63;0.28;;;;;;;8.78;58.86;101206.06;4914309;28;20046;-68
2023/10/12 05:43:17;;;;;;;6.10;0.85;;;;;;;8.90;58.38;101210.13;4922002;28;20502;-68
2023/10/12 05:45:45;;;;;;;7.85;0.80;;;;;;;8.84;58.19;101218.94;4920727;28;20646;-68
2023/10/12 05:48:10;;;;;;;4.82;0.43;;;;;;;8.89;58.25;101224.88;4933071;28;20041;-68
2023/10/12 05:50:36;;;;;;;4.72;0.40;;;;;;;8.90;58.15;101224.00;4911625;28;20047;-68
2023/10/12 05:53:03;;;;;;;3.60;0.50;;;;;;;8.91;58.46;101225.69;4925501;28;20038;-68
2023/10/12 05:55:29;;;;;;;7.10;0.65;;;;;;;8.58;58.39;101224.81;4913442;28;20070;-68
2023/10/12 05:58:06;;;;;;;11.85;0.65;;;;;;;8.55;58.44;101215.31;4920308;28;20131;-71
2023/10/12 06:00:41;;;;;;;3.80;0.65;;;;;;;8.68;58.13;101220.22;4922045;28;20081;-71
2023/10/12 06:03:10;;;;;;;5.38;0.40;;;;;;;8.65;58.43;101228.09;4919616;28;20046;-73
2023/10/12 06:05:36;;;;;;;2.38;0.52;;;;;;;8.63;58.66;101227.28;4914396;28;20147;-73
2023/10/12 06:08:05;;;;;;;6.68;0.80;;;;;;;8.71;58.44;101236.66;4906543;28;20461;-73
2023/10/12 06:10:31;;;;;;;12.77;0.55;;;;;;;8.76;58.35;101239.13;4913813;28;20572;-70
2023/10/12 06:12:57;;;;;;;6.38;0.95;;;;;;;8.72;58.53;101240.13;4919072;28;20267;-73
2023/10/12 06:15:28;;;;;;;10.88;0.85;;;;;;;8.69;58.55;101241.03;4910983;28;20047;-74
2023/10/12 06:17:55;;;;;;;4.30;0.40;;;;;;;8.79;58.04;101239.06;4921138;28;20035;-68
2023/10/12 06:20:40;;;;;;;4.50;0.57;;;;;;;8.77;57.92;101241.72;4912596;28;20035;-70
2023/10/12 06:23:08;;;;;;;6.18;0.45;;;;;;;8.75;57.67;101247.88;4919622;28;20263;-69
2023/10/12 06:25:38;;;;;;;7.47;0.70;;;;;;;8.76;57.86;101252.16;4912467;28;20123;-69
2023/10/12 06:28:14;;;;;;;7.35;0.52;;;;;;;8.78;57.95;101242.56;4917960;28;20045;-71
2023/10/12 06:30:41;;;;;;;7.05;0.50;;;;;;;8.59;58.17;101241.31;4915832;28;21689;-68
2023/10/12 06:33:09;;;;;;;6.50;0.95;;;;;;;8.66;57.99;101238.50;4920695;28;20038;-68
2023/10/12 06:35:35;;;;;;;3.90;0.35;;;;;;;8.60;57.67;101243.03;4912337;28;20039;-68
2023/10/12 06:38:15;;;;;;;4.07;0.25;;;;;;;8.69;58.08;101240.16;4917436;28;20574;-68
2023/10/12 06:40:47;;;;;;;4.85;0.60;;;;;;;8.80;57.95;101238.16;4913595;28;20043;-68
2023/10/12 06:48:40;;;;;;;4.55;0.28;;;;;;;9.36;56.51;101248.75;4934548;28;20042;-68
2023/10/12 06:51:07;;;;;;;6.32;1.17;;;;;;;9.36;55.62;101251.38;4918244;28;20040;-68
2023/10/12 06:53:35;;;;;;;10.15;0.45;;;;;;;10.02;55.90;101243.34;4912486;28;20276;-69
2023/10/12 06:58:43;;;;;;;5.47;0.35;;;;;;;13.05;49.48;101247.66;4913134;28;21672;-69
2023/10/12 07:01:27;;;;;;;12.20;0.80;;;;;;;14.64;44.10;101244.47;4916670;28;20414;-69
2023/10/12 07:03:53;;;;;;;5.07;0.25;;;;;;;16.09;41.04;101252.50;4917406;28;20510;-69
2023/10/12 07:06:19;;;;;;;4.22;0.65;;;;;;;16.72;39.86;101257.56;4915994;28;20581;-69
2023/10/12 07:08:46;;;;;;;9.25;0.47;;;;;;;17.41;38.88;101255.16;4917596;28;20469;-69
2023/10/12 07:11:14;;;;;;;5.55;0.55;;;;;;;18.23;36.81;101250.78;4915125;28;20087;-68
2023/10/12 07:13:41;;;;;;;9.07;0.57;;;;;;;18.76;36.46;101250.75;4912710;28;20036;-69
2023/10/12 07:16:08;;;;;;;7.05;0.50;;;;;;;19.05;35.58;101259.34;4932007;28;20129;-69
2023/10/12 07:18:35;;;;;;;7.13;0.63;;;;;;;18.88;35.42;101261.38;4912750;28;20402;-70
2023/10/12 07:21:00;;;;;;;10.40;1.25;;;;;;;18.16;35.32;101258.25;4917215;28;20510;-70
2023/10/12 07:23:35;;;;;;;5.45;0.85;;;;;;;18.84;36.72;101265.16;4903764;28;20265;-70
2023/10/12 07:26:07;;;;;;;4.38;0.22;;;;;;;20.21;33.54;101271.31;4918041;28;20047;-70
2023/10/12 07:28:33;;;;;;;3.00;0.28;;;;;;;21.54;30.29;101264.63;4919832;28;20417;-69
2023/10/12 07:31:14;;;;;;;9.68;1.05;;;;;;;22.12;31.12;101265.19;4916188;28;20087;-68
2023/10/12 07:33:51;;;;;;;4.60;0.27;;;;;;;22.45;29.67;101266.00;4914668;28;20054;-68
2023/10/12 07:36:17;;;;;;;2.30;0.25;;;;;;;22.28;30.01;101279.91;4916667;28;20090;-69
2023/10/12 07:39:13;;;;;;;2.78;0.30;;;;;;;22.07;29.37;101278.03;4914116;28;22011;-68
2023/10/12 07:41:41;;;;;;;2.63;0.38;;;;;;;21.31;29.95;101282.38;4913621;28;20624;-70
2023/10/12 07:44:07;;;;;;;5.63;0.28;;;;;;;21.41;31.50;101279.84;4917802;28;20285;-69
2023/10/12 07:46:35;;;;;;;4.82;0.52;;;;;;;21.92;29.99;101281.94;4929571;28;20043;-70
2023/10/12 07:49:25;;;;;;;4.03;0.45;;;;;;;22.39;28.97;101287.81;4915299;28;20050;-70
2023/10/12 07:52:38;;;;;;;5.63;0.70;;;;;;;21.28;28.64;101291.44;4912349;28;20035;-70
2023/10/12 07:57:19;;;;;;;6.82;0.60;;;;;;;18.83;33.40;101308.47;4916204;28;20043;-70
2023/10/12 08:03:17;;;;;;;5.40;0.60;;;;;;;15.82;40.40;101319.00;4916337;28;20062;-67
2023/10/12 08:08:35;;;;;;;5.45;0.45;;;;;;;15.94;40.92;101328.84;4929281;28;20102;-68
2023/10/12 08:13:25;;;;;;;2.10;0.20;;;;;;;15.28;42.58;101349.97;4934037;28;20423;-68
2023/10/12 08:23:47;;;;;;;4.22;0.25;;;;;;;13.37;45.50;101353.81;4914165;28;20095;-68
2023/10/12 08:26:34;;;;;;;6.80;0.50;;;;;;;13.49;45.03;101363.75;4918346;28;20057;-68
2023/10/12 08:28:58;;;;;;;4.13;0.32;;;;;;;13.49;45.89;101362.91;4917258;28;20050;-68
2023/10/12 08:31:27;;;;;;;7.47;0.35;;;;;;;13.48;45.70;101376.97;4934697;28;20414;-68
2023/10/12 08:33:58;;;;;;;6.78;0.60;;;;;;;13.46;45.67;101368.31;4921212;28;20459;-70
2023/10/12 08:36:23;;;;;;;5.22;0.57;;;;;;;13.38;45.86;101380.91;4921911;28;20130;-68
2023/10/12 08:38:55;;;;;;;9.73;1.63;;;;;;;13.54;45.92;101376.72;4906945;28;20122;-68
2023/10/12 08:43:59;;;;;;;2.75;0.30;;;;;;;13.87;45.45;101379.59;4920547;28;20032;-70
2023/10/12 08:54:41;;;;;;;7.88;1.15;;;;;;;14.50;43.09;101391.59;4931855;28;20321;-69
2023/10/12 08:57:19;;;;;;;9.82;0.45;;;;;;;14.90;41.82;101392.25;4936596;28;20046;-69
2023/10/12 09:00:23;;;;;;;6.90;0.30;;;;;;;15.04;42.48;101388.94;4920431;28;20047;-69
2023/10/12 09:02:49;;;;;;;8.45;0.45;;;;;;;14.92;41.05;101398.31;4918069;28;20043;-71
2023/10/12 09:05:24;;;;;;;9.32;0.47;;;;;;;14.21;39.73;101399.09;4923406;28;20278;-69
2023/10/12 09:08:06;;;;;;;7.20;0.30;;;;;;;14.68;41.02;101398.59;4917954;28;21564;-69
2023/10/12 09:10:56;;;;;;;;;;;;;;;14.62;41.43;101398.91;4918861;28;20036;-68
2023/10/12 09:13:30;;;;;;;5.43;1.05;;;;;;;14.47;41.21;101400.47;4923369;28;19915;-70
2023/10/12 09:16:14;;;;;;;8.57;0.45;;;;;;;14.53;41.32;101409.88;4931529;28;20051;-69
2023/10/12 09:18:47;;;;;;;6.05;0.20;;;;;;;14.54;41.84;101411.56;4916586;28;20123;-69
2023/10/12 09:21:23;;;;;;;8.27;0.55;;;;;;;14.82;41.82;101405.81;4908138;29;20164;-70
2023/10/12 09:26:34;;;;;;;2.60;0.22;;;;;;;14.91;41.52;101405.34;4919155;28;20995;-69
2023/10/12 09:29:20;;;;;;;10.05;1.33;;;;;;;15.09;41.04;101403.56;4915189;28;20036;-68
2023/10/12 09:36:56;;;;;;;5.97;0.80;;;;;;;14.34;40.15;101394.94;4918270;28;20114;-70
2023/10/12 09:39:25;;;;;;;6.53;0.13;;;;;;;15.04;39.77;101405.59;4920237;28;20410;-70
2023/10/12 09:42:09;;;;;;;6.25;0.70;;;;;;;14.46;39.67;101405.84;4919101;28;20581;-67
2023/10/12 09:44:39;;;;;;;7.43;0.40;;;;;;;;;;4916492;28;20052;-70
2023/10/12 09:47:09;;;;;;;5.03;0.50;;;;;;;14.87;40.50;101418.75;4933839;28;20039;-70
2023/10/12 09:49:37;;;;;;;5.38;0.52;;;;;;;14.17;39.54;101418.56;4915419;28;20058;-70
2023/10/12 09:52:13;;;;;;;7.85;0.57;;;;;;;14.61;41.19;101420.84;4920115;28;20037;-67
2023/10/12 09:54:52;;;;;;;9.15;1.02;;;;;;;14.94;40.96;101417.50;4917143;28;20758;-67
2023/10/12 09:57:23;;;;;;;9.10;1.50;;;;;;;15.13;39.43;101420.91;4918833;28;20550;-68
2023/10/12 09:59:53;;;;;;;11.57;0.82;;;;;;;15.56;38.16;101409.97;4915745;28;20383;-67
2023/10/12 10:02:30;;;;;;;3.20;0.35;;;;;;;15.35;38.33;101409.34;4921563;28;20093;-68
2023/10/12 10:05:26;;;;;;;3.17;0.30;;;;;;;14.87;38.42;101414.31;4916086;28;20162;-68
2023/10/12 10:08:04;;;;;;;7.10;1.08;;;;;;;15.32;39.74;101412.09;4914459;28;20139;-68
2023/10/12 10:10:31;;;;;;;7.30;0.30;;;;;;;15.51;38.21;101415.50;4919223;28;20040;-70
2023/10/12 10:13:12;;;;;;;3.95;0.20;;;;;;;15.87;38.13;101416.25;4912001;28;20572;-70
2023/10/12 10:15:56;;;;;;;8.13;0.60;;;;;;;15.64;37.80;101415.72;4915335;28;20046;-70
2023/10/12 10:18:28;;;;;;;1.85;0.25;;;;;;;16.13;36.73;101415.72;4917871;28;20047;-69
2023/10/12 10:21:01;;;;;;;7.70;0.70;;;;;;;16.31;37.02;101424.41;4911288;28;20062;-70
2023/10/12 10:23:29;;;;;;;7.95;0.47;;;;;;;16.47;35.78;101419.13;4919013;28;20114;-69
2023/10/12 10:26:17;;;;;;;4.72;0.30;;;;;;;16.35;35.54;101425.94;4912067;28;20904;-69
2023/10/12 10:28:58;;;;;;;6.32;0.52;;;;;;;16.25;35.88;101423.91;4915173;28;20036;-68
2023/10/12 10:31:31;;;;;;;3.45;0.20;;;;;;;16.88;36.61;101425.63;4919772;28;20372;-70
2023/10/12 10:34:01;;;;;;;5.35;0.98;;;;;;;16.94;35.27;101422.66;4912578;28;20592;-69
2023/10/12 10:36:34;;;;;;;3.50;0.30;;;;;;;16.73;33.63;101415.00;4922920;28;20119;-69
2023/10/12 10:39:44;;;;;;;7.85;0.60;;;;;;;16.58;33.75;101413.25;4913134;28;20028;-69
2023/10/12 10:42:04;;;;;;;7.60;0.52;;;;;;;17.23;33.64;101405.06;4915229;28;20503;-69
2023/10/12 10:44:36;;;;;;;6.28;1.38;;;;;;;17.08;33.16;101406.81;4915006;28;20118;-70
2023/10/12 10:47:06;;;;;;;5.13;0.50;;;;;;;16.97;33.20;101404.81;4922964;28;20760;-69
2023/10/12 10:49:31;;;;;;;6.10;0.38;;;;;;;17.04;32.94;101421.16;4917161;28;20042;-69
2023/10/12 10:54:38;;;;;;;7.75;0.40;;;;;;;16.11;34.63;101416.75;4932266;28;20130;-68
2023/10/12 10:57:17;;;;;;;6.32;0.95;;;;;;;16.57;32.52;101422.06;4930547;28;20032;-67
2023/10/12 10:59:43;;;;;;;4.85;0.30;;;;;;;16.63;31.60;101422.56;4929367;28;20273;-67
2023/10/12 11:02:12;;;;;;;1.85;0.40;;;;;;;17.05;30.18;101422.88;4918410;28;20039;-69
2023/10/12 11:07:13;;;;;;;6.63;0.80;;;;;;;17.82;31.04;101416.44;4914965;28;20486;-67
2023/10/12 11:12:22;;;;;;;3.95;0.40;;;;;;;18.87;29.44;101420.34;4916612;28;20065;-67
2023/10/12 11:14:58;;;;;;;3.97;0.57;;;;;;;18.33;28.78;101418.56;4912569;28;20536;-68
2023/10/12 11:17:35;;;;;;;1.55;0.38;;;;;;;17.15;30.47;101417.88;4930980;28;20050;-68
2023/10/12 11:20:26;;;;;;;4.97;0.68;;;;;;;17.31;31.21;101415.16;4911123;28;20071;-68
2023/10/12 11:22:52;;;;;;;11.43;1.03;;;;;;;18.22;30.29;101418.41;4911968;28;20043;-67
2023/10/12 11:25:20;;;;;;;4.05;0.30;;;;;;;18.53;29.32;101419.91;4913507;28;20545;-68
2023/10/12 11:27:45;;;;;;;6.03;0.50;;;;;;;18.72;29.19;101416.94;4911763;28;20462;-68
2023/10/12 11:30:18;;;;;;;8.13;1.20;;;;;;;19.05;28.70;101413.81;4914721;28;20126;-67
2023/10/12 11:32:53;;;;;;;1.73;0.20;;;;;;;18.69;30.96;101417.09;4911945;28;20038;-70
2023/10/12 11:35:39;;;;;;;2.75;0.40;;;;;;;19.05;29.96;101416.47;4926362;28;20046;-68
2023/10/12 11:38:18;;;;;;;9.80;1.20;;;;;;;19.45;29.23;101411.09;4913052;28;20071;-67
2023/10/12 11:40:48;;;;;;;4.43;0.70;;;;;;;19.28;28.63;101414.09;4913222;28;20495;-67
2023/10/12 11:43:13;;;;;;;5.78;1.23;;;;;;;18.69;28.21;101409.16;4915642;28;20430;-70
2023/10/12 11:46:05;;;;;;;3.97;0.40;;;;;;;17.93;29.29;101409.66;4914456;28;20051;-69
2023/10/12 11:48:31;;;;;;;5.13;0.20;;;;;;;17.78;30.13;101416.72;4917668;28;20035;-69
2023/10/12 11:50:57;;;;;;;2.70;0.30;;;;;;;17.50;29.83;101421.06;4908670;28;20481;-69
2023/10/12 11:53:24;;;;;;;1.95;0.20;;;;;;;17.36;29.96;101415.75;4933994;28;20059;-70
2023/10/12 11:56:13;;;;;;;6.68;0.35;;;;;;;17.91;29.37;101416.81;4914351;28;20031;-70
2023/10/12 11:58:48;;;;;;;2.13;0.20;;;;;;;18.19;27.53;101426.56;4932483;28;20035;-68
2023/10/12 12:01:14;;;;;;;3.53;0.60;;;;;;;17.32;29.18;101428.28;4914472;28;20062;-68
2023/10/12 12:03:39;;;;;;;3.20;0.20;;;;;;;17.04;30.67;101418.50;4917360;28;20187;-67
2023/10/12 12:06:26;;;;;;;3.00;0.65;;;;;;;17.19;30.31;101412.31;4911306;28;20059;-67
2023/10/12 12:08:56;;;;;;;3.15;0.47;;;;;;;17.34;30.16;101407.06;4926502;28;20499;-67
2023/10/12 12:11:31;;;;;;;1.30;0.20;;;;;;;17.98;30.30;101400.50;4923616;28;20046;-67
2023/10/12 12:13:57;;;;;;;2.40;0.47;;;;;;;18.63;28.52;101405.16;4927014;28;20669;-66
2023/10/12 12:16:25;;;;;;;6.30;0.20;;;;;;;19.07;28.99;101397.84;4917136;28;20028;-66
2023/10/12 12:18:53;;;;;;;4.47;0.30;;;;;;;18.87;28.32;101402.66;4912772;28;20039;-67
2023/10/12 12:21:29;;;;;;;3.03;0.25;;;;;;;18.47;27.88;101407.94;4915988;28;20078;-67
2023/10/12 12:23:56;;;;;;;5.88;0.45;;;;;;;18.84;28.07;101402.00;4909838;28;20067;-69
2023/10/12 12:26:24;;;;;;;3.13;0.30;;;;;;;18.96;27.29;101405.66;4917980;28;20039;-69
2023/10/12 12:29:02;;;;;;;5.78;0.90;;;;;;;18.67;27.72;101397.81;4913311;28;20043;-69
2023/10/12 12:31:32;;;;;;;4.43;0.47;;;;;;;18.38;29.35;101400.59;4918243;28;20035;-69
2023/10/12 12:33:58;;;;;;;1.25;0.20;;;;;;;18.79;27.41;101399.69;4913671;28;20063;-69
2023/10/12 12:36:23;;;;;;;6.22;1.15;;;;;;;18.79;27.24;101399.69;4919511;28;20111;-69
2023/10/12 12:38:57;;;;;;;3.08;0.30;;;;;;;18.62;27.64;101397.28;4914679;28;20047;-69
2023/10/12 12:41:23;;;;;;;6.43;0.50;;;;;;;18.64;28.30;101374.22;4913753;28;20031;-69
2023/10/12 12:43:50;;;;;;;4.15;0.30;;;;;;;18.83;30.16;101380.00;4930416;28;20134;-69
2023/10/12 12:46:17;;;;;;;2.08;0.10;;;;;;;18.40;28.11;101372.22;4901522;28;20055;-69
2023/10/12 12:48:46;;;;;;;4.43;0.52;;;;;;;18.31;28.10;101378.13;4917372;28;20035;-70
2023/10/12 12:51:15;;;;;;;7.70;0.32;;;;;;;18.58;28.46;101379.91;4913725;28;20109;-68
2023/10/12 12:53:42;;;;;;;3.58;0.35;;;;;;;18.75;27.15;101381.44;4919532;28;20040;-69
2023/10/12 12:56:10;;;;;;;3.67;0.52;;;;;;;18.99;26.33;101386.91;4912302;28;20974;-69
2023/10/12 12:58:36;;;;;;;4.53;0.52;;;;;;;19.57;26.58;101376.75;4919023;28;20094;-68
2023/10/12 13:01:03;;;;;;;3.50;0.20;;;;;;;19.96;25.38;101375.72;4913035;28;20074;-69
2023/10/12 13:03:29;;;;;;;1.92;0.20;;;;;;;20.16;25.81;101368.13;4933572;28;20427;-69
2023/10/12 13:05:55;;;;;;;6.57;0.30;;;;;;;19.95;25.38;101368.75;4915450;28;20054;-70
2023/10/12 13:08:22;;;;;;;6.82;0.77;;;;;;;19.78;25.44;101356.69;4917576;28;20053;-69
2023/10/12 13:10:48;;;;;;;9.30;0.50;;;;;;;19.83;25.30;101361.66;4912835;28;20036;-69
2023/10/12 13:13:13;;;;;;;5.10;0.20;;;;;;;19.14;25.65;101372.63;4917050;28;20454;-68
2023/10/12 13:15:42;;;;;;;1.63;0.10;;;;;;;18.50;27.14;101377.78;4919597;28;20477;-69
2023/10/12 13:18:14;;;;;;;5.60;0.47;;;;;;;18.60;28.32;101378.00;4911374;28;20227;-68
2023/10/12 13:20:46;;;;;;;4.18;0.25;;;;;;;18.62;27.88;101370.81;4921326;28;20376;-69
2023/10/12 13:23:21;;;;;;;5.85;0.70;;;;;;;18.87;27.27;101375.31;4933360;28;20043;-68
2023/10/12 13:25:47;;;;;;;6.53;0.45;;;;;;;18.22;27.39;101384.00;4916145;28;20502;-70
2023/10/12 13:28:13;;;;;;;6.75;1.23;;;;;;;18.43;28.40;101377.34;4917918;28;20046;-69
2023/10/12 13:30:39;;;;;;;2.97;0.73;;;;;;;18.19;29.11;101365.69;4920897;28;20063;-69
2023/10/12 13:33:05;;;;;;;2.80;0.38;;;;;;;18.04;29.48;101364.84;4914168;28;20031;-69
2023/10/12 13:35:37;;;;;;;2.88;0.35;;;;;;;18.10;28.97;101361.81;4919639;28;20078;-69